sensor_id;sensor_type;location;lat;lon;timestamp;temperature;humidity
24426;DHT22;12611;44.446;26.000;2024-02-28T00:01:06;10.10;85.80
24426;DHT22;12611;44.446;26.000;2024-02-28T00:03:35;10.10;86.80
24426;DHT22;12611;44.446;26.000;2024-02-28T00:06:04;10.00;86.80
24426;DHT22;12611;44.446;26.000;2024-02-28T00:08:35;10.00;87.20
24426;DHT22;12611;44.446;26.000;2024-02-28T00:11:03;10.10;86.70
24426;DHT22;12611;44.446;26.000;2024-02-28T00:13:32;10.00;86.60
24426;DHT22;12611;44.446;26.000;2024-02-28T00:16:01;10.10;86.50
24426;DHT22;12611;44.446;26.000;2024-02-28T00:18:30;10.10;86.20
24426;DHT22;12611;44.446;26.000;2024-02-28T00:20:59;10.10;86.70
24426;DHT22;12611;44.446;26.000;2024-02-28T00:23:28;10.00;86.90
24426;DHT22;12611;44.446;26.000;2024-02-28T00:25:58;10.00;87.40
24426;DHT22;12611;44.446;26.000;2024-02-28T00:28:26;10.00;88.00
24426;DHT22;12611;44.446;26.000;2024-02-28T00:30:55;10.00;87.70
24426;DHT22;12611;44.446;26.000;2024-02-28T00:33:24;9.90;88.60
24426;DHT22;12611;44.446;26.000;2024-02-28T00:35:53;9.90;87.80
24426;DHT22;12611;44.446;26.000;2024-02-28T00:38:21;9.90;87.80
24426;DHT22;12611;44.446;26.000;2024-02-28T00:40:50;10.00;87.80
24426;DHT22;12611;44.446;26.000;2024-02-28T00:43:20;9.90;87.50
24426;DHT22;12611;44.446;26.000;2024-02-28T00:45:49;9.90;87.70
24426;DHT22;12611;44.446;26.000;2024-02-28T00:48:18;9.90;88.10
24426;DHT22;12611;44.446;26.000;2024-02-28T00:50:46;9.90;88.00
24426;DHT22;12611;44.446;26.000;2024-02-28T00:53:15;9.90;88.10
24426;DHT22;12611;44.446;26.000;2024-02-28T00:55:43;9.90;88.00
24426;DHT22;12611;44.446;26.000;2024-02-28T00:58:12;9.80;88.00
24426;DHT22;12611;44.446;26.000;2024-02-28T01:00:42;9.80;87.70
24426;DHT22;12611;44.446;26.000;2024-02-28T01:03:11;9.80;88.00
24426;DHT22;12611;44.446;26.000;2024-02-28T01:05:42;9.80;87.80
24426;DHT22;12611;44.446;26.000;2024-02-28T01:08:10;9.80;88.80
24426;DHT22;12611;44.446;26.000;2024-02-28T01:10:39;9.80;87.70
24426;DHT22;12611;44.446;26.000;2024-02-28T01:13:08;9.80;88.00
24426;DHT22;12611;44.446;26.000;2024-02-28T01:15:36;9.80;88.00
24426;DHT22;12611;44.446;26.000;2024-02-28T01:18:06;9.80;87.70
24426;DHT22;12611;44.446;26.000;2024-02-28T01:20:35;9.80;87.50
24426;DHT22;12611;44.446;26.000;2024-02-28T01:23:04;9.80;87.40
24426;DHT22;12611;44.446;26.000;2024-02-28T01:25:32;9.80;87.20
24426;DHT22;12611;44.446;26.000;2024-02-28T01:28:01;9.80;87.10
24426;DHT22;12611;44.446;26.000;2024-02-28T01:30:30;9.80;87.20
24426;DHT22;12611;44.446;26.000;2024-02-28T01:32:58;9.70;87.50
24426;DHT22;12611;44.446;26.000;2024-02-28T01:35:29;9.70;87.50
24426;DHT22;12611;44.446;26.000;2024-02-28T01:37:57;9.70;87.90
24426;DHT22;12611;44.446;26.000;2024-02-28T01:40:26;9.70;87.50
24426;DHT22;12611;44.446;26.000;2024-02-28T01:42:54;9.70;87.70
24426;DHT22;12611;44.446;26.000;2024-02-28T01:45:23;9.70;88.10
24426;DHT22;12611;44.446;26.000;2024-02-28T01:47:52;9.60;88.30
24426;DHT22;12611;44.446;26.000;2024-02-28T01:50:21;9.60;88.10
24426;DHT22;12611;44.446;26.000;2024-02-28T01:52:51;9.60;88.10
24426;DHT22;12611;44.446;26.000;2024-02-28T01:55:20;9.50;88.40
24426;DHT22;12611;44.446;26.000;2024-02-28T01:57:49;9.50;88.90
24426;DHT22;12611;44.446;26.000;2024-02-28T02:00:18;9.50;89.40
24426;DHT22;12611;44.446;26.000;2024-02-28T02:02:47;9.40;90.10
24426;DHT22;12611;44.446;26.000;2024-02-28T02:05:16;9.40;90.00
24426;DHT22;12611;44.446;26.000;2024-02-28T02:07:48;9.40;90.00
24426;DHT22;12611;44.446;26.000;2024-02-28T02:10:18;9.40;90.20
24426;DHT22;12611;44.446;26.000;2024-02-28T02:12:47;9.40;90.20
24426;DHT22;12611;44.446;26.000;2024-02-28T02:15:16;9.40;90.40
24426;DHT22;12611;44.446;26.000;2024-02-28T02:17:44;9.30;90.90
24426;DHT22;12611;44.446;26.000;2024-02-28T02:20:15;9.40;90.70
24426;DHT22;12611;44.446;26.000;2024-02-28T02:22:45;9.40;90.70
24426;DHT22;12611;44.446;26.000;2024-02-28T02:25:14;9.30;91.20
24426;DHT22;12611;44.446;26.000;2024-02-28T02:27:42;9.40;91.10
24426;DHT22;12611;44.446;26.000;2024-02-28T02:30:12;9.40;91.10
24426;DHT22;12611;44.446;26.000;2024-02-28T02:32:41;9.40;91.40
24426;DHT22;12611;44.446;26.000;2024-02-28T02:35:09;9.40;91.30
24426;DHT22;12611;44.446;26.000;2024-02-28T02:37:40;9.40;91.20
24426;DHT22;12611;44.446;26.000;2024-02-28T02:40:14;9.40;91.20
24426;DHT22;12611;44.446;26.000;2024-02-28T02:42:43;9.40;91.30
24426;DHT22;12611;44.446;26.000;2024-02-28T02:45:12;9.40;91.10
24426;DHT22;12611;44.446;26.000;2024-02-28T02:47:40;9.40;91.30
24426;DHT22;12611;44.446;26.000;2024-02-28T02:50:11;9.30;91.40
24426;DHT22;12611;44.446;26.000;2024-02-28T02:52:39;9.30;91.30
24426;DHT22;12611;44.446;26.000;2024-02-28T02:55:08;9.30;91.30
24426;DHT22;12611;44.446;26.000;2024-02-28T02:57:39;9.30;91.30
24426;DHT22;12611;44.446;26.000;2024-02-28T03:00:09;9.30;91.40
24426;DHT22;12611;44.446;26.000;2024-02-28T03:02:38;9.30;91.40
24426;DHT22;12611;44.446;26.000;2024-02-28T03:05:08;9.20;91.40
24426;DHT22;12611;44.446;26.000;2024-02-28T03:07:36;9.20;91.20
24426;DHT22;12611;44.446;26.000;2024-02-28T03:10:06;9.20;91.20
24426;DHT22;12611;44.446;26.000;2024-02-28T03:12:35;9.20;91.20
24426;DHT22;12611;44.446;26.000;2024-02-28T03:15:06;9.10;91.10
24426;DHT22;12611;44.446;26.000;2024-02-28T03:17:35;9.20;91.10
24426;DHT22;12611;44.446;26.000;2024-02-28T03:20:04;9.20;91.00
24426;DHT22;12611;44.446;26.000;2024-02-28T03:22:34;9.10;91.20
24426;DHT22;12611;44.446;26.000;2024-02-28T03:25:03;9.10;91.20
24426;DHT22;12611;44.446;26.000;2024-02-28T03:27:32;9.10;91.10
24426;DHT22;12611;44.446;26.000;2024-02-28T03:30:01;9.00;91.20
24426;DHT22;12611;44.446;26.000;2024-02-28T03:32:31;9.10;91.00
24426;DHT22;12611;44.446;26.000;2024-02-28T03:35:00;9.00;91.20
24426;DHT22;12611;44.446;26.000;2024-02-28T03:37:29;9.10;91.10
24426;DHT22;12611;44.446;26.000;2024-02-28T03:39:58;9.10;91.20
24426;DHT22;12611;44.446;26.000;2024-02-28T03:42:26;9.10;91.20
24426;DHT22;12611;44.446;26.000;2024-02-28T03:44:55;9.10;91.00
24426;DHT22;12611;44.446;26.000;2024-02-28T03:47:24;9.20;91.00
24426;DHT22;12611;44.446;26.000;2024-02-28T03:49:54;9.20;90.90
24426;DHT22;12611;44.446;26.000;2024-02-28T03:52:24;9.20;90.90
24426;DHT22;12611;44.446;26.000;2024-02-28T03:54:53;9.20;90.90
24426;DHT22;12611;44.446;26.000;2024-02-28T03:57:21;9.20;90.80
24426;DHT22;12611;44.446;26.000;2024-02-28T03:59:50;9.20;90.90
24426;DHT22;12611;44.446;26.000;2024-02-28T04:02:19;9.20;90.90
24426;DHT22;12611;44.446;26.000;2024-02-28T04:04:47;9.20;91.10
24426;DHT22;12611;44.446;26.000;2024-02-28T04:07:18;9.20;91.00
24426;DHT22;12611;44.446;26.000;2024-02-28T04:09:46;9.20;90.90
24426;DHT22;12611;44.446;26.000;2024-02-28T04:12:15;9.20;90.90
24426;DHT22;12611;44.446;26.000;2024-02-28T04:14:44;9.20;91.00
24426;DHT22;12611;44.446;26.000;2024-02-28T04:17:13;9.30;90.90
24426;DHT22;12611;44.446;26.000;2024-02-28T04:19:41;9.30;90.80
24426;DHT22;12611;44.446;26.000;2024-02-28T04:22:10;9.30;90.70
24426;DHT22;12611;44.446;26.000;2024-02-28T04:24:40;9.40;90.60
24426;DHT22;12611;44.446;26.000;2024-02-28T04:27:09;9.40;90.50
24426;DHT22;12611;44.446;26.000;2024-02-28T04:29:38;9.40;90.40
24426;DHT22;12611;44.446;26.000;2024-02-28T04:32:07;9.40;90.30
24426;DHT22;12611;44.446;26.000;2024-02-28T04:34:36;9.50;90.20
24426;DHT22;12611;44.446;26.000;2024-02-28T04:37:05;9.50;90.20
24426;DHT22;12611;44.446;26.000;2024-02-28T04:39:34;9.40;90.20
24426;DHT22;12611;44.446;26.000;2024-02-28T04:42:06;9.40;90.10
24426;DHT22;12611;44.446;26.000;2024-02-28T04:44:35;9.40;90.10
24426;DHT22;12611;44.446;26.000;2024-02-28T04:47:04;9.40;90.00
24426;DHT22;12611;44.446;26.000;2024-02-28T04:49:32;9.40;90.00
24426;DHT22;12611;44.446;26.000;2024-02-28T04:52:01;9.40;90.20
24426;DHT22;12611;44.446;26.000;2024-02-28T04:54:30;9.50;90.10
24426;DHT22;12611;44.446;26.000;2024-02-28T04:56:58;9.40;90.10
24426;DHT22;12611;44.446;26.000;2024-02-28T04:59:28;9.50;90.00
24426;DHT22;12611;44.446;26.000;2024-02-28T05:01:57;9.50;90.00
24426;DHT22;12611;44.446;26.000;2024-02-28T05:04:26;9.50;90.10
24426;DHT22;12611;44.446;26.000;2024-02-28T05:06:55;9.50;90.00
24426;DHT22;12611;44.446;26.000;2024-02-28T05:09:24;9.50;90.00
24426;DHT22;12611;44.446;26.000;2024-02-28T05:11:53;9.60;90.00
24426;DHT22;12611;44.446;26.000;2024-02-28T05:14:21;9.60;90.00
24426;DHT22;12611;44.446;26.000;2024-02-28T05:16:51;9.50;89.90
24426;DHT22;12611;44.446;26.000;2024-02-28T05:19:20;9.60;89.70
24426;DHT22;12611;44.446;26.000;2024-02-28T05:21:48;9.60;89.60
24426;DHT22;12611;44.446;26.000;2024-02-28T05:24:16;9.60;89.50
24426;DHT22;12611;44.446;26.000;2024-02-28T05:26:45;9.60;89.30
24426;DHT22;12611;44.446;26.000;2024-02-28T05:29:14;9.60;89.30
24426;DHT22;12611;44.446;26.000;2024-02-28T05:31:42;9.60;89.30
24426;DHT22;12611;44.446;26.000;2024-02-28T05:34:13;9.50;89.30
24426;DHT22;12611;44.446;26.000;2024-02-28T05:36:41;9.50;89.30
24426;DHT22;12611;44.446;26.000;2024-02-28T05:39:10;9.50;89.90
24426;DHT22;12611;44.446;26.000;2024-02-28T05:41:38;9.50;89.90
24426;DHT22;12611;44.446;26.000;2024-02-28T05:44:07;9.40;90.20
24426;DHT22;12611;44.446;26.000;2024-02-28T05:46:36;9.50;90.20
24426;DHT22;12611;44.446;26.000;2024-02-28T05:49:04;9.50;90.20
24426;DHT22;12611;44.446;26.000;2024-02-28T05:51:34;9.50;90.20
24426;DHT22;12611;44.446;26.000;2024-02-28T05:54:04;9.50;90.20
24426;DHT22;12611;44.446;26.000;2024-02-28T05:56:32;9.50;90.20
24426;DHT22;12611;44.446;26.000;2024-02-28T05:59:01;9.50;90.40
24426;DHT22;12611;44.446;26.000;2024-02-28T06:01:30;9.60;90.40
24426;DHT22;12611;44.446;26.000;2024-02-28T06:03:58;9.60;90.30
24426;DHT22;12611;44.446;26.000;2024-02-28T06:06:27;9.60;90.30
24426;DHT22;12611;44.446;26.000;2024-02-28T06:08:57;9.60;90.30
24426;DHT22;12611;44.446;26.000;2024-02-28T06:11:26;9.60;90.70
24426;DHT22;12611;44.446;26.000;2024-02-28T06:13:55;9.60;90.60
24426;DHT22;12611;44.446;26.000;2024-02-28T06:16:24;9.70;90.60
24426;DHT22;12611;44.446;26.000;2024-02-28T06:18:52;9.70;90.50
24426;DHT22;12611;44.446;26.000;2024-02-28T06:21:22;9.70;90.50
24426;DHT22;12611;44.446;26.000;2024-02-28T06:23:51;9.70;90.50
24426;DHT22;12611;44.446;26.000;2024-02-28T06:26:21;9.70;90.50
24426;DHT22;12611;44.446;26.000;2024-02-28T06:28:50;9.80;90.50
24426;DHT22;12611;44.446;26.000;2024-02-28T06:31:20;9.80;90.50
24426;DHT22;12611;44.446;26.000;2024-02-28T06:33:51;9.80;90.50
24426;DHT22;12611;44.446;26.000;2024-02-28T06:36:20;9.80;90.40
24426;DHT22;12611;44.446;26.000;2024-02-28T06:38:48;9.90;90.70
24426;DHT22;12611;44.446;26.000;2024-02-28T06:41:17;9.90;90.40
24426;DHT22;12611;44.446;26.000;2024-02-28T06:43:47;10.00;90.40
24426;DHT22;12611;44.446;26.000;2024-02-28T06:46:16;10.00;90.30
24426;DHT22;12611;44.446;26.000;2024-02-28T06:48:45;10.10;90.30
24426;DHT22;12611;44.446;26.000;2024-02-28T06:51:13;10.10;90.20
24426;DHT22;12611;44.446;26.000;2024-02-28T06:53:44;10.10;90.10
24426;DHT22;12611;44.446;26.000;2024-02-28T06:56:12;10.10;90.10
24426;DHT22;12611;44.446;26.000;2024-02-28T06:58:41;10.20;90.10
24426;DHT22;12611;44.446;26.000;2024-02-28T07:01:11;10.20;90.00
24426;DHT22;12611;44.446;26.000;2024-02-28T07:03:40;10.20;90.00
24426;DHT22;12611;44.446;26.000;2024-02-28T07:06:11;10.30;90.00
24426;DHT22;12611;44.446;26.000;2024-02-28T07:08:39;10.40;90.00
24426;DHT22;12611;44.446;26.000;2024-02-28T07:11:13;10.50;89.90
24426;DHT22;12611;44.446;26.000;2024-02-28T07:13:42;10.50;89.70
24426;DHT22;12611;44.446;26.000;2024-02-28T07:16:13;10.60;89.70
24426;DHT22;12611;44.446;26.000;2024-02-28T07:18:42;10.70;89.50
24426;DHT22;12611;44.446;26.000;2024-02-28T07:21:11;10.80;89.40
24426;DHT22;12611;44.446;26.000;2024-02-28T07:23:40;10.80;89.00
24426;DHT22;12611;44.446;26.000;2024-02-28T07:26:14;10.90;88.80
24426;DHT22;12611;44.446;26.000;2024-02-28T07:28:53;11.00;88.80
24426;DHT22;12611;44.446;26.000;2024-02-28T07:31:23;11.10;88.70
24426;DHT22;12611;44.446;26.000;2024-02-28T07:33:52;11.20;88.60
24426;DHT22;12611;44.446;26.000;2024-02-28T07:36:20;11.30;88.30
24426;DHT22;12611;44.446;26.000;2024-02-28T07:38:50;11.40;88.30
24426;DHT22;12611;44.446;26.000;2024-02-28T07:41:19;11.40;87.90
24426;DHT22;12611;44.446;26.000;2024-02-28T07:43:49;11.50;87.70
24426;DHT22;12611;44.446;26.000;2024-02-28T07:46:17;11.50;87.40
24426;DHT22;12611;44.446;26.000;2024-02-28T07:48:48;11.50;86.90
24426;DHT22;12611;44.446;26.000;2024-02-28T07:51:17;11.60;86.70
24426;DHT22;12611;44.446;26.000;2024-02-28T07:53:46;11.60;86.60
24426;DHT22;12611;44.446;26.000;2024-02-28T07:56:18;11.70;86.40
24426;DHT22;12611;44.446;26.000;2024-02-28T07:58:47;11.70;86.00
24426;DHT22;12611;44.446;26.000;2024-02-28T08:01:17;11.80;85.80
24426;DHT22;12611;44.446;26.000;2024-02-28T08:03:47;11.90;86.20
24426;DHT22;12611;44.446;26.000;2024-02-28T08:06:16;11.90;85.70
24426;DHT22;12611;44.446;26.000;2024-02-28T08:08:45;11.90;85.20
24426;DHT22;12611;44.446;26.000;2024-02-28T08:11:14;11.90;85.10
24426;DHT22;12611;44.446;26.000;2024-02-28T08:13:43;11.90;85.20
24426;DHT22;12611;44.446;26.000;2024-02-28T08:16:12;11.90;84.80
24426;DHT22;12611;44.446;26.000;2024-02-28T08:18:41;11.90;85.80
24426;DHT22;12611;44.446;26.000;2024-02-28T08:21:11;12.00;84.90
24426;DHT22;12611;44.446;26.000;2024-02-28T08:23:39;12.10;84.80
24426;DHT22;12611;44.446;26.000;2024-02-28T08:26:08;12.30;84.80
24426;DHT22;12611;44.446;26.000;2024-02-28T08:28:37;12.30;84.50
24426;DHT22;12611;44.446;26.000;2024-02-28T08:31:06;12.40;84.40
24426;DHT22;12611;44.446;26.000;2024-02-28T08:33:34;12.40;84.10
24426;DHT22;12611;44.446;26.000;2024-02-28T08:36:04;12.40;83.70
24426;DHT22;12611;44.446;26.000;2024-02-28T08:38:34;12.60;83.50
24426;DHT22;12611;44.446;26.000;2024-02-28T08:41:06;12.80;83.80
24426;DHT22;12611;44.446;26.000;2024-02-28T08:43:38;12.90;83.60
24426;DHT22;12611;44.446;26.000;2024-02-28T08:46:07;13.10;83.60
24426;DHT22;12611;44.446;26.000;2024-02-28T08:48:36;13.10;82.50
24426;DHT22;12611;44.446;26.000;2024-02-28T08:51:05;13.10;82.50
24426;DHT22;12611;44.446;26.000;2024-02-28T08:53:35;13.10;81.80
24426;DHT22;12611;44.446;26.000;2024-02-28T08:56:04;13.20;81.70
24426;DHT22;12611;44.446;26.000;2024-02-28T08:58:34;13.20;80.40
24426;DHT22;12611;44.446;26.000;2024-02-28T09:01:02;13.20;80.50
24426;DHT22;12611;44.446;26.000;2024-02-28T09:03:31;13.30;80.20
24426;DHT22;12611;44.446;26.000;2024-02-28T09:06:00;13.20;79.10
24426;DHT22;12611;44.446;26.000;2024-02-28T09:08:29;13.20;79.30
24426;DHT22;12611;44.446;26.000;2024-02-28T09:11:00;13.20;80.40
24426;DHT22;12611;44.446;26.000;2024-02-28T09:13:29;13.20;79.60
24426;DHT22;12611;44.446;26.000;2024-02-28T09:15:57;13.20;79.10
24426;DHT22;12611;44.446;26.000;2024-02-28T09:18:26;13.20;79.10
24426;DHT22;12611;44.446;26.000;2024-02-28T09:20:55;13.30;79.40
24426;DHT22;12611;44.446;26.000;2024-02-28T09:23:24;13.30;79.20
24426;DHT22;12611;44.446;26.000;2024-02-28T09:25:53;13.30;79.00
24426;DHT22;12611;44.446;26.000;2024-02-28T09:28:24;13.40;79.10
24426;DHT22;12611;44.446;26.000;2024-02-28T09:30:53;13.50;79.40
24426;DHT22;12611;44.446;26.000;2024-02-28T09:33:22;13.50;78.60
24426;DHT22;12611;44.446;26.000;2024-02-28T09:35:50;13.50;78.80
24426;DHT22;12611;44.446;26.000;2024-02-28T09:38:19;13.60;78.80
24426;DHT22;12611;44.446;26.000;2024-02-28T09:40:49;13.60;78.60
24426;DHT22;12611;44.446;26.000;2024-02-28T09:43:28;13.70;78.30
24426;DHT22;12611;44.446;26.000;2024-02-28T09:45:59;13.70;78.30
24426;DHT22;12611;44.446;26.000;2024-02-28T09:48:29;13.80;78.30
24426;DHT22;12611;44.446;26.000;2024-02-28T09:50:59;13.90;78.40
24426;DHT22;12611;44.446;26.000;2024-02-28T09:53:28;14.00;78.50
24426;DHT22;12611;44.446;26.000;2024-02-28T09:55:57;14.10;78.10
24426;DHT22;12611;44.446;26.000;2024-02-28T09:58:28;14.20;77.70
24426;DHT22;12611;44.446;26.000;2024-02-28T10:00:59;14.20;77.00
24426;DHT22;12611;44.446;26.000;2024-02-28T10:03:31;14.30;77.00
24426;DHT22;12611;44.446;26.000;2024-02-28T10:05:59;14.30;76.00
24426;DHT22;12611;44.446;26.000;2024-02-28T10:08:32;14.40;75.90
24426;DHT22;12611;44.446;26.000;2024-02-28T10:11:02;14.40;75.80
24426;DHT22;12611;44.446;26.000;2024-02-28T10:13:33;14.50;75.70
24426;DHT22;12611;44.446;26.000;2024-02-28T10:16:01;14.60;75.80
24426;DHT22;12611;44.446;26.000;2024-02-28T10:18:31;14.60;75.30
24426;DHT22;12611;44.446;26.000;2024-02-28T10:20:59;14.70;75.30
24426;DHT22;12611;44.446;26.000;2024-02-28T10:23:28;14.80;75.30
24426;DHT22;12611;44.446;26.000;2024-02-28T10:25:57;14.90;75.40
24426;DHT22;12611;44.446;26.000;2024-02-28T10:28:26;14.90;74.30
24426;DHT22;12611;44.446;26.000;2024-02-28T10:30:56;14.90;72.70
24426;DHT22;12611;44.446;26.000;2024-02-28T10:33:27;14.90;72.80
24426;DHT22;12611;44.446;26.000;2024-02-28T10:35:58;15.00;73.60
24426;DHT22;12611;44.446;26.000;2024-02-28T10:38:27;15.10;74.10
24426;DHT22;12611;44.446;26.000;2024-02-28T10:40:56;15.20;73.10
24426;DHT22;12611;44.446;26.000;2024-02-28T10:43:28;15.20;72.70
24426;DHT22;12611;44.446;26.000;2024-02-28T10:45:59;15.20;71.70
24426;DHT22;12611;44.446;26.000;2024-02-28T10:48:30;15.30;72.50
24426;DHT22;12611;44.446;26.000;2024-02-28T10:51:03;15.40;72.80
24426;DHT22;12611;44.446;26.000;2024-02-28T10:53:36;15.40;72.40
24426;DHT22;12611;44.446;26.000;2024-02-28T10:56:06;15.50;72.40
24426;DHT22;12611;44.446;26.000;2024-02-28T10:58:46;15.60;72.60
24426;DHT22;12611;44.446;26.000;2024-02-28T11:01:19;15.70;72.90
24426;DHT22;12611;44.446;26.000;2024-02-28T11:03:49;15.70;72.20
24426;DHT22;12611;44.446;26.000;2024-02-28T11:06:20;15.80;72.30
24426;DHT22;12611;44.446;26.000;2024-02-28T11:08:49;15.90;70.50
24426;DHT22;12611;44.446;26.000;2024-02-28T11:11:21;15.90;70.70
24426;DHT22;12611;44.446;26.000;2024-02-28T11:13:54;16.00;69.70
24426;DHT22;12611;44.446;26.000;2024-02-28T11:16:28;16.00;69.70
24426;DHT22;12611;44.446;26.000;2024-02-28T11:18:57;16.10;70.40
24426;DHT22;12611;44.446;26.000;2024-02-28T11:21:28;16.20;70.60
24426;DHT22;12611;44.446;26.000;2024-02-28T11:24:00;16.30;70.70
24426;DHT22;12611;44.446;26.000;2024-02-28T11:26:30;16.30;70.30
24426;DHT22;12611;44.446;26.000;2024-02-28T11:28:59;16.40;70.00
24426;DHT22;12611;44.446;26.000;2024-02-28T11:31:29;16.40;70.10
24426;DHT22;12611;44.446;26.000;2024-02-28T11:33:58;16.50;70.30
24426;DHT22;12611;44.446;26.000;2024-02-28T11:36:27;16.50;70.20
24426;DHT22;12611;44.446;26.000;2024-02-28T11:38:56;16.60;70.30
24426;DHT22;12611;44.446;26.000;2024-02-28T11:41:27;16.60;70.00
24426;DHT22;12611;44.446;26.000;2024-02-28T11:43:56;16.70;69.90
24426;DHT22;12611;44.446;26.000;2024-02-28T11:46:25;16.80;69.00
24426;DHT22;12611;44.446;26.000;2024-02-28T11:48:55;16.80;68.80
24426;DHT22;12611;44.446;26.000;2024-02-28T11:51:24;16.90;68.60
24426;DHT22;12611;44.446;26.000;2024-02-28T11:53:53;17.00;69.00
24426;DHT22;12611;44.446;26.000;2024-02-28T11:56:22;17.00;67.80
24426;DHT22;12611;44.446;26.000;2024-02-28T11:58:51;17.10;66.90
24426;DHT22;12611;44.446;26.000;2024-02-28T12:01:20;17.10;67.00
24426;DHT22;12611;44.446;26.000;2024-02-28T12:04:02;17.20;67.20
24426;DHT22;12611;44.446;26.000;2024-02-28T12:06:31;17.30;67.30
24426;DHT22;12611;44.446;26.000;2024-02-28T12:09:00;17.40;67.50
24426;DHT22;12611;44.446;26.000;2024-02-28T12:11:30;17.50;67.50
24426;DHT22;12611;44.446;26.000;2024-02-28T12:13:58;17.50;66.40
24426;DHT22;12611;44.446;26.000;2024-02-28T12:16:28;17.60;66.60
24426;DHT22;12611;44.446;26.000;2024-02-28T12:18:58;17.60;66.20
24426;DHT22;12611;44.446;26.000;2024-02-28T12:21:28;17.70;66.00
24426;DHT22;12611;44.446;26.000;2024-02-28T12:23:57;17.70;64.30
24426;DHT22;12611;44.446;26.000;2024-02-28T12:26:27;17.70;65.20
24426;DHT22;12611;44.446;26.000;2024-02-28T12:28:56;17.80;65.30
24426;DHT22;12611;44.446;26.000;2024-02-28T12:31:27;17.90;65.10
24426;DHT22;12611;44.446;26.000;2024-02-28T12:33:56;17.90;64.70
24426;DHT22;12611;44.446;26.000;2024-02-28T12:36:25;17.90;63.80
24426;DHT22;12611;44.446;26.000;2024-02-28T12:38:55;17.90;63.10
24426;DHT22;12611;44.446;26.000;2024-02-28T12:41:26;18.00;63.80
24426;DHT22;12611;44.446;26.000;2024-02-28T12:43:55;18.00;63.50
24426;DHT22;12611;44.446;26.000;2024-02-28T12:46:23;18.10;63.60
24426;DHT22;12611;44.446;26.000;2024-02-28T12:48:53;18.20;64.00
24426;DHT22;12611;44.446;26.000;2024-02-28T12:51:37;18.30;64.10
24426;DHT22;12611;44.446;26.000;2024-02-28T12:54:08;18.40;64.60
24426;DHT22;12611;44.446;26.000;2024-02-28T12:56:37;18.50;63.70
24426;DHT22;12611;44.446;26.000;2024-02-28T12:59:06;18.60;63.60
24426;DHT22;12611;44.446;26.000;2024-02-28T13:01:35;18.70;64.40
24426;DHT22;12611;44.446;26.000;2024-02-28T13:04:04;18.90;64.80
24426;DHT22;12611;44.446;26.000;2024-02-28T13:06:33;19.10;64.70
24426;DHT22;12611;44.446;26.000;2024-02-28T13:09:02;19.40;63.00
24426;DHT22;12611;44.446;26.000;2024-02-28T13:11:31;19.70;63.70
24426;DHT22;12611;44.446;26.000;2024-02-28T13:14:00;20.00;62.50
24426;DHT22;12611;44.446;26.000;2024-02-28T13:16:30;20.30;62.70
24426;DHT22;12611;44.446;26.000;2024-02-28T13:18:58;20.60;60.80
24426;DHT22;12611;44.446;26.000;2024-02-28T13:21:27;21.10;61.70
24426;DHT22;12611;44.446;26.000;2024-02-28T13:23:56;21.40;59.50
24426;DHT22;12611;44.446;26.000;2024-02-28T13:26:25;21.80;58.70
24426;DHT22;12611;44.446;26.000;2024-02-28T13:28:56;22.10;57.90
24426;DHT22;12611;44.446;26.000;2024-02-28T13:31:25;22.40;58.30
24426;DHT22;12611;44.446;26.000;2024-02-28T13:33:54;22.60;57.30
24426;DHT22;12611;44.446;26.000;2024-02-28T13:36:22;22.70;56.30
24426;DHT22;12611;44.446;26.000;2024-02-28T13:38:52;22.80;55.20
24426;DHT22;12611;44.446;26.000;2024-02-28T13:41:20;22.70;54.80
24426;DHT22;12611;44.446;26.000;2024-02-28T13:43:49;22.80;55.10
24426;DHT22;12611;44.446;26.000;2024-02-28T13:46:19;22.90;54.50
24426;DHT22;12611;44.446;26.000;2024-02-28T13:48:48;23.10;53.80
24426;DHT22;12611;44.446;26.000;2024-02-28T13:51:17;23.50;53.80
24426;DHT22;12611;44.446;26.000;2024-02-28T13:53:45;23.70;52.70
24426;DHT22;12611;44.446;26.000;2024-02-28T13:56:14;23.90;52.30
24426;DHT22;12611;44.446;26.000;2024-02-28T13:58:43;24.50;50.50
24426;DHT22;12611;44.446;26.000;2024-02-28T14:01:21;24.50;50.90
24426;DHT22;12611;44.446;26.000;2024-02-28T14:03:50;26.50;49.70
24426;DHT22;12611;44.446;26.000;2024-02-28T14:06:19;28.20;46.00
24426;DHT22;12611;44.446;26.000;2024-02-28T14:08:47;28.50;45.60
24426;DHT22;12611;44.446;26.000;2024-02-28T14:11:18;29.60;44.70
24426;DHT22;12611;44.446;26.000;2024-02-28T14:13:47;30.30;43.80
24426;DHT22;12611;44.446;26.000;2024-02-28T14:16:16;30.10;42.60
24426;DHT22;12611;44.446;26.000;2024-02-28T14:18:48;29.40;42.50
24426;DHT22;12611;44.446;26.000;2024-02-28T14:21:16;28.50;43.40
24426;DHT22;12611;44.446;26.000;2024-02-28T14:23:46;27.90;43.50
24426;DHT22;12611;44.446;26.000;2024-02-28T14:26:15;27.40;43.70
24426;DHT22;12611;44.446;26.000;2024-02-28T14:28:44;26.60;44.60
24426;DHT22;12611;44.446;26.000;2024-02-28T14:31:12;26.20;45.70
24426;DHT22;12611;44.446;26.000;2024-02-28T14:33:41;26.10;45.40
24426;DHT22;12611;44.446;26.000;2024-02-28T14:36:11;26.10;45.20
24426;DHT22;12611;44.446;26.000;2024-02-28T14:38:41;25.80;45.50
24426;DHT22;12611;44.446;26.000;2024-02-28T14:41:11;25.50;46.10
24426;DHT22;12611;44.446;26.000;2024-02-28T14:43:39;25.20;46.60
24426;DHT22;12611;44.446;26.000;2024-02-28T14:46:08;24.80;47.30
24426;DHT22;12611;44.446;26.000;2024-02-28T14:48:38;24.80;47.80
24426;DHT22;12611;44.446;26.000;2024-02-28T14:51:08;25.10;47.30
24426;DHT22;12611;44.446;26.000;2024-02-28T14:53:38;25.40;46.90
24426;DHT22;12611;44.446;26.000;2024-02-28T14:56:07;25.60;46.50
24426;DHT22;12611;44.446;26.000;2024-02-28T14:58:35;25.30;46.90
24426;DHT22;12611;44.446;26.000;2024-02-28T15:01:06;24.80;47.40
24426;DHT22;12611;44.446;26.000;2024-02-28T15:03:35;24.60;48.00
24426;DHT22;12611;44.446;26.000;2024-02-28T15:06:07;24.30;48.00
24426;DHT22;12611;44.446;26.000;2024-02-28T15:08:37;23.90;48.30
24426;DHT22;12611;44.446;26.000;2024-02-28T15:11:06;23.50;48.90
24426;DHT22;12611;44.446;26.000;2024-02-28T15:13:35;23.10;49.30
24426;DHT22;12611;44.446;26.000;2024-02-28T15:16:04;22.70;49.80
24426;DHT22;12611;44.446;26.000;2024-02-28T15:18:33;22.40;50.30
24426;DHT22;12611;44.446;26.000;2024-02-28T15:21:02;22.10;50.70
24426;DHT22;12611;44.446;26.000;2024-02-28T15:23:30;21.80;51.40
24426;DHT22;12611;44.446;26.000;2024-02-28T15:26:00;21.50;51.80
24426;DHT22;12611;44.446;26.000;2024-02-28T15:28:29;21.20;52.20
24426;DHT22;12611;44.446;26.000;2024-02-28T15:30:58;21.00;52.60
24426;DHT22;12611;44.446;26.000;2024-02-28T15:33:27;20.70;52.90
24426;DHT22;12611;44.446;26.000;2024-02-28T15:35:56;20.50;53.30